createdAt,value
2019-02-06T00:01:13.146Z,45.67
2019-02-06T00:03:54.432Z,45.00
2019-02-06T00:06:40.020Z,40.83
2019-02-06T00:09:15.240Z,44.73
2019-02-06T00:11:44.438Z,47.63
2019-02-06T00:14:13.362Z,46.50
2019-02-06T00:16:43.912Z,48.33
2019-02-06T00:19:21.384Z,46.60
2019-02-06T00:21:48.277Z,41.53
2019-02-06T00:24:16.517Z,42.83
2019-02-06T00:26:58.465Z,42.67
2019-02-06T00:29:29.324Z,43.67
2019-02-06T00:32:00.509Z,44.87
2019-02-06T00:34:29.134Z,45.40
2019-02-06T00:36:57.281Z,27.63
2019-02-06T00:39:28.598Z,39.53
2019-02-06T00:41:56.511Z,45.27
2019-02-06T00:44:30.501Z,43.93
2019-02-06T00:46:59.598Z,41.90
2019-02-06T00:49:28.086Z,43.67
2019-02-06T00:51:56.512Z,42.13
2019-02-06T00:54:33.804Z,42.23
2019-02-06T00:57:02.660Z,41.33
2019-02-06T00:59:42.234Z,43.60
2019-02-06T01:02:15.774Z,42.93
2019-02-06T01:04:45.842Z,43.30
2019-02-06T01:07:20.587Z,37.60
2019-02-06T01:09:49.665Z,42.10
2019-02-06T01:12:20.199Z,28.53
2019-02-06T01:14:48.472Z,41.63
2019-02-06T01:17:16.766Z,42.33
2019-02-06T01:19:48.683Z,40.43
2019-02-06T01:22:19.964Z,42.30
2019-02-06T01:24:49.074Z,34.87
2019-02-06T01:27:31.750Z,31.13
2019-02-06T01:30:25.220Z,38.33
2019-02-06T01:33:09.916Z,40.73
2019-02-06T01:35:49.977Z,40.57
2019-02-06T01:38:17.837Z,42.60
2019-02-06T01:40:49.162Z,41.47
2019-02-06T01:43:17.906Z,41.30
2019-02-06T01:45:54.020Z,41.33
2019-02-06T01:48:21.991Z,42.37
2019-02-06T01:51:02.034Z,40.90
2019-02-06T01:53:33.278Z,42.90
2019-02-06T01:56:01.696Z,34.73
2019-02-06T01:58:30.023Z,40.73
2019-02-06T02:00:58.399Z,34.63
2019-02-06T02:03:26.698Z,41.13
2019-02-06T02:06:02.337Z,37.50
2019-02-06T02:11:03.648Z,43.03
2019-02-06T02:13:31.739Z,41.00
2019-02-06T02:16:05.681Z,38.73
2019-02-06T02:18:42.642Z,39.73
2019-02-06T02:21:19.322Z,41.23
2019-02-06T02:24:00.692Z,31.47
2019-02-06T02:26:30.497Z,41.87
2019-02-06T02:29:01.683Z,42.70
2019-02-06T02:31:30.752Z,27.70
2019-02-06T02:34:01.994Z,39.50
2019-02-06T02:36:34.694Z,39.23
2019-02-06T02:39:13.580Z,38.00
2019-02-06T02:41:56.579Z,39.23
2019-02-06T02:44:28.553Z,38.73
2019-02-06T02:46:56.620Z,38.07
2019-02-06T02:49:26.128Z,38.57
2019-02-06T02:52:05.119Z,38.90
2019-02-06T02:54:33.424Z,39.70
2019-02-06T02:57:01.954Z,41.57
2019-02-06T03:02:22.473Z,39.40
2019-02-06T03:04:57.149Z,34.73
2019-02-06T03:07:41.927Z,36.37
2019-02-06T03:12:45.952Z,39.97
2019-02-06T03:15:14.659Z,36.80
2019-02-06T03:17:45.506Z,37.80
2019-02-06T03:20:17.789Z,40.63
2019-02-06T03:22:45.917Z,36.57
2019-02-06T03:25:14.188Z,37.93
2019-02-06T03:27:42.445Z,37.77
2019-02-06T03:30:13.024Z,39.30
2019-02-06T03:32:41.429Z,39.20
2019-02-06T03:35:09.761Z,38.93
2019-02-06T03:37:40.192Z,38.70
2019-02-06T03:40:09.714Z,34.97
2019-02-06T03:42:38.291Z,36.70
2019-02-06T03:45:12.401Z,36.20
2019-02-06T03:47:41.394Z,33.20
2019-02-06T03:50:13.993Z,36.57
2019-02-06T03:52:45.637Z,36.50
2019-02-06T03:55:21.437Z,37.13
2019-02-06T03:57:51.059Z,36.83
2019-02-06T04:00:36.957Z,39.60
2019-02-06T04:02:57.643Z,37.30
2019-02-06T04:05:28.917Z,39.50
2019-02-06T04:10:52.376Z,37.03
2019-02-06T04:13:28.153Z,37.17
2019-02-06T04:15:56.405Z,33.27
2019-02-06T04:18:25.266Z,39.13
2019-02-06T04:20:55.711Z,36.20
2019-02-06T04:23:24.640Z,37.30
2019-02-06T04:25:52.561Z,35.77
2019-02-06T04:28:24.845Z,33.70
2019-02-06T04:30:54.249Z,34.93
2019-02-06T04:33:22.305Z,37.87
2019-02-06T04:35:55.262Z,37.53
2019-02-06T04:38:27.896Z,36.83
2019-02-06T04:41:10.177Z,37.20
2019-02-06T04:44:04.402Z,37.17
2019-02-06T04:46:35.649Z,36.93
2019-02-06T04:49:05.271Z,37.47
2019-02-06T04:51:39.015Z,38.20
2019-02-06T04:54:10.879Z,38.07
2019-02-06T04:57:16.491Z,37.73
2019-02-06T04:59:36.487Z,36.47
2019-02-06T05:02:12.494Z,36.03
2019-02-06T05:04:48.231Z,35.70
2019-02-06T05:07:26.516Z,34.87
2019-02-06T05:09:55.046Z,34.57
2019-02-06T05:15:23.422Z,34.53
2019-02-06T05:17:56.798Z,33.37
2019-02-06T05:20:40.478Z,34.70
2019-02-06T05:23:10.170Z,33.97
2019-02-06T05:25:39.604Z,33.63
2019-02-06T05:28:08.428Z,33.17
2019-02-06T05:30:40.307Z,30.37
2019-02-06T05:33:10.706Z,29.57
2019-02-06T05:35:51.034Z,33.13
2019-02-06T05:38:23.496Z,33.67
2019-02-06T05:41:14.563Z,32.13
2019-02-06T05:43:42.943Z,32.90
2019-02-06T05:46:24.754Z,32.87
2019-02-06T05:48:52.730Z,31.70
2019-02-06T05:51:21.054Z,32.17
2019-02-06T05:53:49.301Z,30.93
2019-02-06T05:56:17.798Z,31.73
2019-02-06T05:58:46.930Z,31.70
2019-02-06T06:01:16.752Z,30.67
2019-02-06T06:03:44.490Z,33.80
2019-02-06T06:06:12.372Z,30.90
2019-02-06T06:08:40.045Z,31.47
2019-02-06T06:11:09.551Z,32.50
2019-02-06T06:13:37.642Z,30.00
2019-02-06T06:16:05.434Z,32.97
2019-02-06T06:18:35.598Z,32.10
2019-02-06T06:21:03.372Z,30.63
2019-02-06T06:23:31.280Z,33.17
2019-02-06T06:25:59.059Z,29.83
2019-02-06T06:28:26.894Z,30.83
2019-02-06T06:30:54.752Z,31.93
2019-02-06T06:33:22.653Z,29.63
2019-02-06T06:35:50.649Z,31.70
2019-02-06T06:38:18.576Z,30.77
2019-02-06T06:40:46.467Z,31.27
2019-02-06T06:43:16.321Z,31.53
2019-02-06T06:45:43.990Z,31.40
2019-02-06T06:48:11.922Z,31.53
2019-02-06T06:50:39.935Z,30.87
2019-02-06T06:53:07.913Z,31.27
2019-02-06T06:55:35.739Z,31.83
2019-02-06T06:58:03.790Z,30.87
2019-02-06T07:00:31.574Z,32.50
2019-02-06T07:02:59.475Z,30.37
2019-02-06T07:05:27.413Z,30.57
2019-02-06T07:07:55.235Z,30.53
2019-02-06T07:10:23.343Z,29.43
2019-02-06T07:12:51.464Z,27.80
2019-02-06T07:15:22.214Z,29.33
2019-02-06T07:17:51.494Z,29.20
2019-02-06T07:20:19.536Z,28.47
2019-02-06T07:22:53.487Z,28.57
2019-02-06T07:25:21.770Z,30.10
2019-02-06T07:27:49.904Z,29.13
2019-02-06T07:30:22.971Z,29.03
2019-02-06T07:32:56.799Z,28.93
2019-02-06T07:35:24.855Z,29.00
2019-02-06T07:37:56.342Z,30.57
2019-02-06T07:40:24.856Z,29.73
2019-02-06T07:43:08.976Z,29.90
2019-02-06T07:45:39.508Z,31.23
2019-02-06T07:48:15.566Z,30.37
2019-02-06T07:50:59.175Z,30.53
2019-02-06T07:53:30.038Z,30.57
2019-02-06T07:56:00.592Z,30.30
2019-02-06T07:58:28.532Z,29.13
2019-02-06T08:00:56.510Z,30.93
2019-02-06T08:03:24.993Z,29.97
2019-02-06T08:05:52.754Z,31.97
2019-02-06T08:08:21.550Z,32.40
2019-02-06T08:10:49.264Z,30.33
2019-02-06T08:13:16.881Z,29.90
2019-02-06T08:15:46.493Z,30.93
2019-02-06T08:18:14.104Z,29.60
2019-02-06T08:20:41.820Z,32.80
2019-02-06T08:23:09.527Z,30.97
2019-02-06T08:25:37.195Z,32.13
2019-02-06T08:28:04.880Z,32.30
2019-02-06T08:30:35.041Z,31.57
2019-02-06T08:33:02.825Z,31.50
2019-02-06T08:35:30.889Z,29.73
2019-02-06T08:37:58.653Z,29.20
2019-02-06T08:40:27.509Z,29.23
2019-02-06T08:42:55.723Z,28.20
2019-02-06T08:45:23.433Z,29.27
2019-02-06T08:47:51.297Z,28.37
2019-02-06T08:50:19.119Z,28.20
2019-02-06T08:52:47.063Z,27.37
2019-02-06T08:55:17.644Z,27.47
2019-02-06T08:57:45.269Z,26.27
2019-02-06T09:00:16.840Z,27.10
2019-02-06T09:02:44.499Z,26.67
2019-02-06T09:05:12.241Z,28.57
2019-02-06T09:07:39.978Z,26.93
2019-02-06T09:10:09.769Z,28.23
2019-02-06T09:12:37.442Z,27.47
2019-02-06T09:15:05.146Z,26.37
2019-02-06T09:17:33.050Z,28.70
2019-02-06T09:20:00.742Z,27.33
2019-02-06T09:22:28.524Z,25.33
2019-02-06T09:24:56.190Z,26.30
2019-02-06T09:27:23.849Z,26.50
2019-02-06T09:29:51.699Z,28.57
2019-02-06T09:32:19.352Z,27.83
2019-02-06T09:34:46.990Z,26.67
2019-02-06T09:37:14.862Z,26.93
2019-02-06T09:39:42.483Z,28.67
2019-02-06T09:42:10.186Z,28.43
2019-02-06T09:44:38.148Z,27.90
2019-02-06T09:47:06.485Z,27.50
2019-02-06T09:49:34.364Z,26.67
2019-02-06T09:52:02.041Z,27.30
2019-02-06T09:54:31.478Z,26.43
2019-02-06T09:56:59.126Z,27.57
2019-02-06T09:59:27.807Z,27.60
2019-02-06T10:01:56.003Z,27.73
2019-02-06T10:04:23.786Z,28.80
2019-02-06T10:06:54.286Z,28.37
2019-02-06T10:09:23.094Z,26.93
2019-02-06T10:11:50.528Z,27.30
2019-02-06T10:14:20.850Z,27.73
2019-02-06T10:16:48.822Z,27.93
2019-02-06T10:19:16.601Z,28.17
2019-02-06T10:21:44.345Z,27.60
2019-02-06T10:24:11.997Z,28.87
2019-02-06T10:26:39.770Z,28.57
2019-02-06T10:29:07.405Z,27.40
2019-02-06T10:31:35.089Z,27.30
2019-02-06T10:34:02.804Z,28.83
2019-02-06T10:36:30.393Z,27.20
2019-02-06T10:38:58.046Z,26.53
2019-02-06T10:41:25.705Z,26.83
2019-02-06T10:43:53.356Z,27.47
2019-02-06T10:46:21.021Z,27.67
2019-02-06T10:48:49.444Z,26.30
2019-02-06T10:51:17.057Z,27.27
2019-02-06T10:53:44.725Z,27.80
2019-02-06T10:56:12.390Z,27.20
2019-02-06T10:58:40.028Z,27.13
2019-02-06T11:01:07.752Z,27.17
2019-02-06T11:03:35.348Z,26.97
2019-02-06T11:06:03.046Z,26.50
2019-02-06T11:08:30.740Z,26.37
2019-02-06T11:10:58.701Z,26.90
2019-02-06T11:13:27.378Z,26.37
2019-02-06T11:15:55.187Z,26.73
2019-02-06T11:18:22.855Z,26.93
2019-02-06T11:20:50.494Z,26.10
2019-02-06T11:23:18.246Z,26.30
2019-02-06T11:25:45.872Z,25.97
2019-02-06T11:28:13.708Z,26.90
2019-02-06T11:30:41.292Z,24.23
2019-02-06T11:33:08.898Z,24.87
2019-02-06T11:35:36.581Z,25.03
2019-02-06T11:38:04.639Z,25.37
2019-02-06T11:40:32.265Z,25.20
2019-02-06T11:42:59.956Z,24.13
2019-02-06T11:45:29.885Z,25.07
2019-02-06T11:47:57.578Z,25.83
2019-02-06T11:50:31.235Z,26.13
2019-02-06T11:52:58.845Z,26.10
2019-02-06T11:55:26.551Z,25.23
2019-02-06T11:57:54.297Z,25.43
2019-02-06T12:00:41.955Z,24.73
2019-02-06T12:03:09.668Z,25.77
2019-02-06T12:05:37.300Z,24.70
2019-02-06T12:08:05.005Z,24.50
2019-02-06T12:10:35.928Z,25.63
2019-02-06T12:13:03.963Z,25.10
2019-02-06T12:15:31.768Z,23.77
2019-02-06T12:17:59.782Z,23.80
2019-02-06T12:20:27.545Z,23.70
2019-02-06T12:22:55.244Z,25.20
2019-02-06T12:25:23.000Z,23.43
2019-02-06T12:27:50.683Z,24.93
2019-02-06T12:30:24.045Z,23.23
2019-02-06T12:32:52.529Z,24.50
2019-02-06T12:35:20.478Z,22.93
2019-02-06T12:37:48.252Z,23.40
2019-02-06T12:40:21.572Z,22.80
2019-02-06T12:42:45.788Z,22.80
2019-02-06T12:45:14.026Z,23.50
2019-02-06T12:47:41.858Z,23.73
2019-02-06T12:50:09.862Z,24.07
2019-02-06T12:52:38.375Z,23.03
2019-02-06T12:55:08.474Z,23.07
2019-02-06T12:57:37.571Z,21.70
2019-02-06T13:00:10.145Z,23.40
2019-02-06T13:02:38.177Z,22.50
2019-02-06T13:05:06.106Z,22.10
2019-02-06T13:07:33.907Z,22.37
2019-02-06T13:10:01.645Z,21.77
2019-02-06T13:12:29.447Z,21.70
2019-02-06T13:14:57.198Z,23.17
2019-02-06T13:17:26.139Z,22.57
2019-02-06T13:19:54.314Z,21.63
2019-02-06T13:22:22.067Z,21.13
2019-02-06T13:24:50.326Z,21.83
2019-02-06T13:27:21.523Z,20.10
2019-02-06T13:29:49.432Z,20.00
2019-02-06T13:32:17.241Z,18.27
2019-02-06T13:34:45.206Z,18.20
2019-02-06T13:37:13.757Z,16.37
2019-02-06T13:39:42.154Z,18.87
2019-02-06T13:42:09.912Z,18.03
2019-02-06T13:44:37.752Z,16.87
2019-02-06T13:47:05.713Z,17.80
2019-02-06T13:49:33.747Z,18.17
2019-02-06T13:52:12.208Z,17.00
2019-02-06T13:54:40.756Z,16.90
2019-02-06T13:57:08.582Z,18.43
2019-02-06T13:59:36.770Z,18.50
2019-02-06T14:02:05.104Z,17.33
2019-02-06T14:04:33.076Z,19.07
2019-02-06T14:07:01.354Z,18.23
2019-02-06T14:09:29.160Z,20.90
2019-02-06T14:11:57.164Z,19.40
2019-02-06T14:14:28.179Z,20.00
2019-02-06T14:16:55.996Z,19.13
2019-02-06T14:19:25.590Z,24.30
2019-02-06T14:21:53.574Z,20.20
2019-02-06T14:24:33.550Z,21.87
2019-02-06T14:27:28.801Z,20.17
2019-02-06T14:30:49.347Z,19.00
2019-02-06T14:33:37.564Z,19.80
2019-02-06T14:37:04.928Z,20.03
2019-02-06T14:39:58.245Z,18.97
2019-02-06T14:43:08.269Z,18.73
2019-02-06T14:46:05.262Z,18.23
2019-02-06T14:49:31.971Z,18.30
2019-02-06T14:52:28.827Z,18.20
2019-02-06T14:55:26.300Z,18.30
2019-02-06T14:58:42.934Z,17.63
2019-02-06T15:01:28.295Z,17.43
2019-02-06T15:04:40.908Z,17.90
2019-02-06T15:07:30.081Z,17.30
2019-02-06T15:10:48.859Z,19.77
2019-02-06T15:13:51.557Z,17.60
2019-02-06T15:16:56.769Z,16.87
2019-02-06T15:19:43.919Z,16.67
2019-02-06T15:23:02.193Z,16.10
2019-02-06T15:26:04.345Z,15.90
2019-02-06T15:29:06.048Z,14.83
2019-02-06T15:32:31.314Z,16.33
2019-02-06T15:35:37.216Z,15.63
2019-02-06T15:38:34.127Z,16.10
2019-02-06T15:44:18.089Z,16.07
2019-02-06T15:47:41.828Z,16.13
2019-02-06T15:50:52.655Z,16.03
2019-02-06T15:54:20.025Z,16.40
2019-02-06T15:57:37.242Z,16.97
2019-02-06T16:00:27.295Z,17.30
2019-02-06T16:03:04.523Z,19.40
2019-02-06T16:06:09.231Z,17.90
2019-02-06T16:09:27.670Z,19.57
2019-02-06T16:12:33.761Z,20.50
2019-02-06T16:15:29.755Z,18.70
2019-02-06T16:18:02.861Z,21.20
2019-02-06T16:21:12.625Z,20.17
2019-02-06T16:24:19.525Z,20.57
2019-02-06T16:27:35.542Z,20.17
2019-02-06T16:30:53.323Z,21.90
2019-02-06T16:33:53.345Z,22.70
2019-02-06T16:37:10.144Z,23.27
2019-02-06T16:40:11.999Z,24.23
2019-02-06T16:45:56.681Z,26.83
2019-02-06T16:48:53.641Z,26.57
2019-02-06T16:51:34.891Z,29.27
2019-02-06T16:54:51.308Z,28.63
2019-02-06T16:57:59.415Z,29.10
2019-02-06T17:01:08.032Z,30.13
2019-02-06T17:04:22.533Z,31.07
2019-02-06T17:07:21.325Z,30.77
2019-02-06T17:13:25.245Z,31.90
2019-02-06T17:16:10.715Z,31.00
2019-02-06T17:19:40.791Z,30.47
2019-02-06T17:22:40.692Z,31.77
2019-02-06T17:26:04.458Z,31.00
2019-02-06T17:28:52.874Z,30.53
2019-02-06T17:32:12.308Z,32.77
2019-02-06T17:34:58.034Z,32.70
2019-02-06T17:37:43.025Z,35.33
2019-02-06T17:40:37.031Z,34.50
2019-02-06T17:43:14.733Z,33.83
2019-02-06T17:46:06.251Z,33.83
2019-02-06T17:49:07.365Z,33.77
2019-02-06T17:51:57.020Z,31.23
2019-02-06T17:54:54.434Z,31.47
2019-02-06T17:57:22.690Z,32.67
2019-02-06T17:59:51.499Z,32.07
2019-02-06T18:02:23.623Z,31.13
2019-02-06T18:04:52.160Z,32.17
2019-02-06T18:07:20.195Z,31.33
2019-02-06T18:09:56.509Z,30.57
2019-02-06T18:12:28.869Z,30.13
2019-02-06T18:14:57.294Z,30.30
2019-02-06T18:17:26.377Z,31.93
2019-02-06T18:19:54.909Z,30.60
2019-02-06T18:22:23.403Z,31.03
2019-02-06T18:24:51.783Z,28.33
2019-02-06T18:27:19.893Z,33.30
2019-02-06T18:29:48.518Z,33.60
2019-02-06T18:32:16.683Z,32.77
2019-02-06T18:34:45.916Z,35.47
2019-02-06T18:37:14.251Z,33.37
2019-02-06T18:39:42.505Z,34.57
2019-02-06T18:42:10.857Z,34.53
2019-02-06T18:44:39.167Z,31.50
2019-02-06T18:47:08.334Z,31.23
2019-02-06T18:49:36.669Z,31.67
2019-02-06T18:52:05.123Z,30.63
2019-02-06T18:54:33.506Z,32.33
2019-02-06T18:57:04.418Z,31.13
2019-02-06T18:59:37.510Z,31.63
2019-02-06T19:02:06.224Z,30.90
2019-02-06T19:04:34.734Z,29.67
2019-02-06T19:07:04.264Z,30.03
2019-02-06T19:09:32.960Z,28.77
2019-02-06T19:12:04.990Z,30.73
2019-02-06T19:14:34.593Z,31.07
2019-02-06T19:17:02.779Z,30.30
2019-02-06T19:19:31.241Z,30.77
2019-02-06T19:21:59.758Z,30.37
2019-02-06T19:24:30.593Z,29.37
2019-02-06T19:27:01.419Z,32.43
2019-02-06T19:29:30.150Z,31.83
2019-02-06T19:31:58.969Z,32.07
2019-02-06T19:34:30.640Z,32.57
2019-02-06T19:36:59.919Z,32.53
2019-02-06T19:39:28.185Z,34.00
2019-02-06T19:41:59.320Z,33.07
2019-02-06T19:44:28.522Z,36.20
2019-02-06T19:46:56.594Z,34.60
2019-02-06T19:49:24.983Z,35.00
2019-02-06T19:51:54.670Z,34.50
2019-02-06T19:54:22.846Z,35.13
2019-02-06T19:56:52.646Z,38.77
2019-02-06T19:59:24.782Z,39.70
2019-02-06T20:01:54.149Z,40.17
2019-02-06T20:04:22.539Z,39.60
2019-02-06T20:06:54.186Z,42.10
2019-02-06T20:09:32.054Z,43.23
2019-02-06T20:12:00.564Z,43.73
2019-02-06T20:14:31.727Z,43.40
2019-02-06T20:17:01.229Z,44.13
2019-02-06T20:19:29.384Z,44.70
2019-02-06T20:21:58.323Z,46.93
2019-02-06T20:24:26.730Z,45.73
2019-02-06T20:26:55.619Z,45.77
2019-02-06T20:29:23.749Z,45.57
2019-02-06T20:31:52.228Z,46.70
2019-02-06T20:34:22.012Z,46.57
2019-02-06T20:36:50.283Z,47.40
2019-02-06T20:39:18.540Z,45.93
2019-02-06T20:41:47.123Z,45.47
2019-02-06T20:44:15.394Z,45.73
2019-02-06T20:46:43.913Z,46.53
2019-02-06T20:49:12.069Z,47.00
2019-02-06T20:51:40.579Z,49.60
2019-02-06T20:54:09.615Z,49.60
2019-02-06T20:56:37.734Z,52.47
2019-02-06T20:59:06.586Z,53.00
2019-02-06T21:01:34.793Z,52.53
2019-02-06T21:04:03.053Z,52.90
2019-02-06T21:06:31.457Z,55.50
2019-02-06T21:09:00.256Z,54.50
2019-02-06T21:11:28.907Z,55.43
2019-02-06T21:13:57.131Z,55.63
2019-02-06T21:16:25.282Z,54.10
2019-02-06T21:18:53.634Z,58.07
2019-02-06T21:21:21.913Z,54.40
2019-02-06T21:23:50.354Z,54.63
2019-02-06T21:26:18.583Z,55.53
2019-02-06T21:28:47.281Z,54.57
2019-02-06T21:31:15.569Z,52.73
2019-02-06T21:33:43.683Z,52.83
2019-02-06T21:36:11.908Z,54.10
2019-02-06T21:38:41.748Z,54.90
2019-02-06T21:41:10.293Z,52.30
2019-02-06T21:43:44.144Z,52.40
2019-02-06T21:46:09.899Z,51.60
2019-02-06T21:48:47.206Z,51.27
2019-02-06T21:51:17.376Z,51.10
2019-02-06T21:53:45.576Z,51.93
2019-02-06T21:56:13.612Z,51.70
2019-02-06T21:58:42.120Z,54.17
2019-02-06T22:01:10.192Z,51.47
2019-02-06T22:03:39.224Z,53.00
2019-02-06T22:06:09.379Z,53.77
2019-02-06T22:08:37.899Z,52.20
2019-02-06T22:11:06.208Z,54.17
2019-02-06T22:13:34.585Z,55.00
2019-02-06T22:16:06.092Z,58.80
2019-02-06T22:18:34.267Z,60.77
2019-02-06T22:21:02.350Z,58.47
2019-02-06T22:23:31.850Z,57.40
2019-02-06T22:26:00.880Z,60.70
2019-02-06T22:28:31.837Z,59.03
2019-02-06T22:31:01.591Z,64.00
2019-02-06T22:33:30.691Z,65.07
2019-02-06T22:35:58.863Z,66.30
2019-02-06T22:38:29.579Z,68.07
2019-02-06T22:40:57.890Z,63.77
2019-02-06T22:43:27.192Z,65.37
2019-02-06T22:45:55.371Z,70.20
2019-02-06T22:48:23.460Z,69.17
2019-02-06T22:51:05.954Z,66.50
2019-02-06T22:53:34.008Z,68.77
2019-02-06T22:56:02.331Z,67.20
2019-02-06T22:58:31.406Z,70.87
2019-02-06T23:01:25.810Z,68.97
2019-02-06T23:03:54.457Z,65.00
2019-02-06T23:06:22.773Z,69.23
2019-02-06T23:08:50.864Z,72.87
2019-02-06T23:11:18.725Z,72.60
2019-02-06T23:13:46.696Z,75.97
2019-02-06T23:16:14.544Z,74.73
2019-02-06T23:18:42.471Z,75.50
2019-02-06T23:21:12.522Z,78.87
2019-02-06T23:23:40.523Z,78.93
2019-02-06T23:26:08.438Z,73.53
2019-02-06T23:28:36.277Z,77.40
2019-02-06T23:31:04.211Z,70.00
2019-02-06T23:33:33.205Z,79.30
2019-02-06T23:36:02.058Z,77.60
2019-02-06T23:38:30.178Z,72.00
2019-02-06T23:40:58.130Z,73.80
2019-02-06T23:43:25.981Z,76.80
2019-02-06T23:45:53.840Z,75.13
2019-02-06T23:48:21.650Z,77.57
2019-02-06T23:50:50.751Z,74.07
2019-02-06T23:53:18.542Z,74.30
2019-02-06T23:55:46.482Z,77.77
2019-02-06T23:58:14.398Z,76.87
